Terminal Aerodrome Forecast
Issued by NWS

Home | Current Version | Previous Version | Text Only | Print | Product List | Glossary On
Versions: 1 2 3 4 5 6 7 8 9 10 11 12 13 14 15 16 17 18 19 20 21 22 23 24 25 26 27 28 29 30 31 32 33 34 35 36 37 38
000
FTUS43 KDDC 012320
TAFHYS
TAF
KHYS 012320Z 0200/0224 11008KT P6SM SKC
     FM020900 33010KT 2SM BR OVC007 PROB30 0209/0212 2SM TS BKN007CB
     FM021200 34012KT P6SM OVC050
      TEMPO 0212/0215 P6SM -SHRA OVC050
     FM021500 33017KT 4SM BR OVC004
      TEMPO 0215/0218 4SM -DZ OVC004
     FM021800 34017KT P6SM OVC007
     FM022100 34014KT P6SM OVC050=

USA.gov is the U.S. government's official web portal to all federal, state and local government web resources and services.